Scroll down
FLIGHT INFORMATION
British Airways

BAW57

At Arrival Gate

EGLL
 FAOR
DATE: 2022-05-02
GATE: 544
GATE DEPARTURE: 20:25
TAKEOFF: 20:40
DATE: 2022-05-03
GATE: E6
LANDING: 07:17
GATE ARRIVAL: 07:26
FLIGHT DATA
Crew: 
Speed: 
912 kph
Altitude: 
37,011 ft
Stage Length: 
9,075.1 km
Block Time: 
11 hrs
Flight Time: 
10.6 hrs
Fuel Used: 
78,510 kg
Cleared Route: EGLL MAXIT MID DRAKE SITET ETRAT DVL LGL SORAP BENAR VANAD AMB SOPIL BALAN EVPOK NARAK GAI LOMRA ROCAN PUMAL XEPLA BCN GARBI LARPA TOLSO LISAS MJV OSGAL GENIO MOGIL ZEM CHLAL BSA ZIBAN ELO RIMEL BARKA NAGAH TILMA TARAT DJA IKTAV ENDOK RAKOM DIR EBNOS BUNLU USPOK FL VOSLI USLOV EDGUM ENERO AMLOS KIBLO ERNEV VOTUR KISDU OPGAM USKAV EBAKO EMSAT BAMAV MBA ILDIV ENKAK IKVOS KAPNA BUSIV KIVDO DURNA VSA EXIGO EPNUL APKUS AVONI EPMAG NERIB IMDIP IMLAM NEREX ETLON UTRAN GADVI TEXES UTVEX EXIMI APMET RUDAS ITROL AVAGO FAOR
TRACK DATA
50,000 ft 1,000 kts
AIRCRAFT INFO AND CUMULATIVE STATS
Aircraft Type: 
B77W
Registration: 
SELCAL: 
MSN/LN: 
66582 / 1667
Operator: 
Total Flights: 
2
Total Block Time: 
21.6 hrs
Total Flight Time: 
21 hrs
Total Fuel Used: 
150,708 kg
DATALINK LOG | Newest first | Current as of: 2022-10-04 19:35:45
LABEL SEQUENCE CONTENT Dn/Up
QD273507:26 41.6▼ Dn
QC182707:17▼ Dn
2U0726FAOR 030630Z 29007KT CAVOK 13/09 Q1030 NOSIG▲ Up
2S0816FAOR▼ Dn
GA2848GATE E6▲ Up
GR2838FAOR 07:04 MAAS 00 YP/UM 00/00 WCHR/S/C 00/00/00 HI-VAL NO DIPL/VIP NO▼ Dn
2U1258FAOR 030530Z 31007KT CAVOK 12/08 Q1030 NOSIG▲ Up
2S1223FAOR▼ Dn
UM204718CLEARED TO FL 350▲ Up
DM64708REQUEST FL 350 DUE TO A/C PERF▼ Dn
QB410520:40▼ Dn
QA255020:25 214.7▼ Dn
5Z05312 MAY 22 20:04:48z / FLT DECK GOOD / ACF POS GOOD / GRND SERVICES GOOD / MAINT GOOD▼ Dn
2U0312EGLL 021950Z AUTO 31003KT 9999 NCD 15/08 Q1021 NOSIG▲ Up
2S0331EGLL▼ Dn
A30127CLEARED TO FAOR VIA MAXI1G MAXIT Y803 MID L151 SITET UN859 SOPIL BALAN EVPOK NARAK GAI LOMRA ROCAN PUMAL UN859 MOGIL UB31 ZEM UB726 BSA UR985 RIMEL UM2 DJA UB730 DIR UM731 RUDAS UQ25 ITROL UQ44 AVAGO AVAG1C. SQUAWK 6072.▲ Up
B30127EGLL FAOR BAW57 G-STBM ▼ Dn
Q05016[LINK ACK]▲ Up
Q05016[LINK TEST]▼ Dn


AIRCRAFT HISTORY
FLIGHT DATE FLIGHT NO. ORIGIN DESTINATION CLEARED ROUTE BLOCK TIME FLIGHT TIME FUEL USED PILOT
2022-05-02BAW57EGLL FAOR EGLL MAXIT MID DRAKE SITET ETRAT DVL LGL SORAP BENAR VANAD AMB SOPIL BALAN EVPOK NARAK GAI LOMRA ROCAN PUMAL XEPLA BCN GARBI LARPA TOLSO LISAS MJV OSGAL GENIO MOGIL ZEM CHLAL BSA ZIBAN ELO RIMEL BARKA NAGAH TILMA TARAT DJA IKTAV ENDOK RAKOM DIR EBNOS BUNLU USPOK FL VOSLI USLOV EDGUM ENERO AMLOS KIBLO ERNEV VOTUR KISDU OPGAM USKAV EBAKO EMSAT BAMAV MBA ILDIV ENKAK IKVOS KAPNA BUSIV KIVDO DURNA VSA EXIGO EPNUL APKUS AVONI EPMAG NERIB IMDIP IMLAM NEREX ETLON UTRAN GADVI TEXES UTVEX EXIMI APMET RUDAS ITROL AVAGO FAOR11 hrs10.6 hrs173,086 lbAnton Vind
2022-04-26BAW60VRMM EGLL VRMM LELEM BIBGO ESMIT GOLEM DONSA BOLUR KITAL GOLNI TAVKO BONOM EMURU TULBU MEKNA KURTA SODEX ELUDA NOBTO SIGMO VUXOD UMIBU KUGTO BOSEV ITKEV KUSBA TAGDU IMGUX ALPOB ROTAG ITMUB MODOG RAMKI RABLA SOLOB ALREP ORDIG MEDMA OBMON OVUPI TOKMA ORSOL ITNAS DAMUR ITEVO DAVUS BOXIK RALKA TASMI GADSI KODAV RESAK SEPTU NAMDI OTALO TOMSI VUSEB ROXOP NINVA EFFEZ SRT RENGI NAREN TALIL KONUK EBEDI ODALI NELPO APVAS USANU ODPOT RUXEV EKSUK UPKAG VAXEB ESOSU TIVUG EVPUV DEVMU EVPIM BEDOP MODAU ODMAX NEGEM MATEL ARGES DEGET BEGLA DEXIT INBED BOMBI ADKUV NIK HELEN COA KEGIT SASKI INLOD SUMUM LOGAN EGLL10.6 hrs10.4 hrs159,169 lbAnton Vind